Time;durP1;ratioP1;P1;durP2;ratioP2;P2;SDS_P1;SDS_P2;PMS_P1;PMS_P2;Temp;Humidity;BMP_temperature;BMP_pressure;BME280_temperature;BME280_humidity;BME280_pressure;Samples;Min_cycle;Max_cycle;Signal;HPM_P1;HPM_P2
2022/11/26 00:00:36;;;;;;;;;;;19.70;99.90;;;;;;4977085;28;19926;-82
2022/11/26 00:03:03;;;;;;;;;;;19.70;99.90;;;;;;4976871;28;19930;-82
2022/11/26 00:05:30;;;;;;;;;;;19.60;99.90;;;;;;4975509;28;20367;-82
2022/11/26 00:07:58;;;;;;;;;;;19.70;99.90;;;;;;4975356;28;19926;-82
2022/11/26 00:10:27;;;;;;;;;;;19.70;99.90;;;;;;4975551;28;20289;-83
2022/11/26 00:12:54;;;;;;;;;;;19.70;99.90;;;;;;4975345;28;19930;-83
2022/11/26 00:15:22;;;;;;;;;;;19.60;99.90;;;;;;4975371;28;19933;-83
2022/11/26 00:17:50;;;;;;;;;;;19.70;99.90;;;;;;4975422;28;19927;-83
2022/11/26 00:20:16;;;;;;;;;;;19.70;99.90;;;;;;4975299;28;19926;-83
2022/11/26 00:22:44;;;;;;;;;;;19.80;99.90;;;;;;4974391;28;19930;-83
2022/11/26 00:25:15;;;;;;;;;;;19.70;99.90;;;;;;4975213;28;19926;-83
2022/11/26 00:27:43;;;;;;;;;;;19.70;99.90;;;;;;4975247;28;19926;-83
2022/11/26 00:30:17;;;;;;;;;;;19.70;99.90;;;;;;4974765;28;19930;-83
2022/11/26 00:32:43;;;;;;;;;;;19.70;99.90;;;;;;4974959;28;19939;-83
2022/11/26 00:35:10;;;;;;;;;;;19.70;99.90;;;;;;4974826;28;20275;-83
2022/11/26 00:37:38;;;;;;;;;;;19.70;99.90;;;;;;4974872;28;20402;-83
2022/11/26 00:40:06;;;;;;;;;;;19.70;99.90;;;;;;4975986;28;19933;-82
2022/11/26 00:42:32;;;;;;;;;;;19.70;99.90;;;;;;4975324;28;20424;-82
2022/11/26 00:45:00;;;;;;;;;;;19.70;99.90;;;;;;4975529;28;19942;-82
2022/11/26 00:47:27;;;;;;;;;;;19.70;99.90;;;;;;4975094;28;20386;-82
2022/11/26 00:49:53;;;;;;;;;;;19.60;99.90;;;;;;4976796;28;19930;-82
2022/11/26 00:52:27;;;;;;;;;;;19.50;99.90;;;;;;4976082;28;19926;-82
2022/11/26 00:54:53;;;;;;;;;;;19.70;99.90;;;;;;4976810;28;20406;-82
2022/11/26 00:57:20;;;;;;;;;;;19.60;99.90;;;;;;4977244;28;19934;-82
2022/11/26 00:59:46;;;;;;;;;;;19.70;99.90;;;;;;4981025;28;20386;-81
2022/11/26 01:02:14;;;;;;;;;;;19.70;99.90;;;;;;4982080;28;19927;-81
2022/11/26 06:17:40;;;;;;;;;;;19.70;99.90;;;;;;5297676;23;20415;-83
2022/11/26 06:20:07;;;;;;;;;;;19.70;99.90;;;;;;4979065;28;19926;-83
2022/11/26 06:22:36;;;;;;;;;;;19.60;99.90;;;;;;4979177;28;19926;-83
2022/11/26 06:25:03;;;;;;;;;;;19.60;99.90;;;;;;4978852;28;19948;-83
2022/11/26 06:27:29;;;;;;;;;;;19.60;99.90;;;;;;4977473;28;19933;-83
2022/11/26 06:29:56;;;;;;;;;;;19.50;99.90;;;;;;4977457;28;19937;-83
2022/11/26 06:32:27;;;;;;;;;;;19.80;99.90;;;;;;4988021;28;19926;-87
2022/11/26 06:34:55;;;;;;;;;;;19.60;99.90;;;;;;4983665;28;20333;-85
2022/11/26 06:37:21;;;;;;;;;;;19.60;99.90;;;;;;4977049;28;19933;-85
2022/11/26 06:39:48;;;;;;;;;;;20.30;99.90;;;;;;4977166;28;19933;-85
2022/11/26 06:42:14;;;;;;;;;;;18.80;99.90;;;;;;4977149;28;19926;-85
2022/11/26 06:44:41;;;;;;;;;;;19.80;99.90;;;;;;4977563;28;19926;-85
2022/11/26 06:47:09;;;;;;;;;;;20.60;99.90;;;;;;4977582;28;19926;-85
2022/11/26 06:49:36;;;;;;;;;;;18.80;99.90;;;;;;4977208;28;19937;-85
2022/11/26 06:52:04;;;;;;;;;;;19.50;99.90;;;;;;4977184;28;20313;-85
2022/11/26 06:54:31;;;;;;;;;;;19.50;99.90;;;;;;4977103;28;19933;-85
2022/11/26 06:56:57;;;;;;;;;;;19.50;99.90;;;;;;4976819;28;19926;-85
2022/11/26 06:59:24;;;;;;;;;;;19.50;99.90;;;;;;4976799;28;19932;-85
2022/11/26 07:01:51;;;;;;;;;;;18.70;99.90;;;;;;4977037;28;20317;-84
2022/11/26 07:04:17;;;;;;;;;;;20.30;99.90;;;;;;4978507;28;19926;-84
2022/11/26 07:06:44;;;;;;;;;;;19.50;99.90;;;;;;4980298;28;19933;-85
2022/11/26 07:09:12;;;;;;;;;;;19.50;99.90;;;;;;4981155;28;19933;-84
2022/11/26 07:11:39;;;;;;;;;;;19.30;99.90;;;;;;4978919;28;19926;-84
2022/11/26 07:14:06;;;;;;;;;;;19.50;99.90;;;;;;4977587;28;19930;-84
2022/11/26 07:16:33;;;;;;;;;;;18.70;99.90;;;;;;4976720;28;19933;-85
2022/11/26 07:19:00;;;;;;;;;;;19.50;99.90;;;;;;4976161;28;19934;-84
2022/11/26 07:21:27;;;;;;;;;;;19.60;99.90;;;;;;4976253;28;19930;-84
2022/11/26 07:23:54;;;;;;;;;;;19.40;99.90;;;;;;4976339;28;19926;-84
2022/11/26 07:26:23;;;;;;;;;;;19.40;99.90;;;;;;4975939;28;19926;-85
2022/11/26 07:28:49;;;;;;;;;;;19.50;99.90;;;;;;4975848;28;20386;-85
2022/11/26 07:31:18;;;;;;;;;;;19.30;99.90;;;;;;4976099;28;19930;-85
2022/11/26 07:33:44;;;;;;;;;;;19.80;99.90;;;;;;4975273;28;19926;-85
2022/11/26 07:36:13;;;;;;;;;;;19.50;99.90;;;;;;4975944;28;19926;-85
2022/11/26 07:38:40;;;;;;;;;;;19.50;99.90;;;;;;4976000;28;19932;-85
2022/11/26 07:41:07;;;;;;;;;;;19.50;99.90;;;;;;4975750;28;19945;-85
2022/11/26 07:43:35;;;;;;;;;;;19.40;99.90;;;;;;4976308;28;19926;-84
2022/11/26 07:46:02;;;;;;;;;;;19.40;99.90;;;;;;4976720;28;19926;-85
2022/11/26 07:48:29;;;;;;;;;;;19.40;99.90;;;;;;4976128;28;19932;-84
2022/11/26 07:50:56;;;;;;;;;;;19.40;99.90;;;;;;4975481;28;20428;-84
2022/11/26 07:53:22;;;;;;;;;;;19.30;99.90;;;;;;4975468;28;20460;-84
2022/11/26 07:55:49;;;;;;;;;;;18.90;99.90;;;;;;4975665;28;19933;-84
2022/11/26 07:58:16;;;;;;;;;;;20.10;99.90;;;;;;4976200;28;19933;-84
2022/11/26 08:00:44;;;;;;;;;;;19.30;99.90;;;;;;4981415;28;19926;-84
2022/11/26 08:03:11;;;;;;;;;;;19.40;99.90;;;;;;4981007;28;20351;-85
2022/11/26 08:05:40;;;;;;;;;;;19.50;99.90;;;;;;4982885;28;19930;-87
2022/11/26 08:08:07;;;;;;;;;;;19.40;99.90;;;;;;4981625;28;19930;-86
2022/11/26 08:10:34;;;;;;;;;;;19.40;99.90;;;;;;4981237;28;19949;-86
2022/11/26 08:13:02;;;;;;;;;;;18.10;99.90;;;;;;4981273;28;19926;-86
2022/11/26 08:15:29;;;;;;;;;;;19.40;99.90;;;;;;4981027;28;19926;-85
2022/11/26 08:17:57;;;;;;;;;;;19.40;99.90;;;;;;4981203;28;19926;-83
2022/11/26 08:20:25;;;;;;;;;;;19.40;99.90;;;;;;4981222;28;19926;-84
2022/11/26 08:22:52;;;;;;;;;;;19.40;99.90;;;;;;4981578;28;19926;-84
2022/11/26 08:25:19;;;;;;;;;;;19.40;99.90;;;;;;4981054;28;19926;-84
2022/11/26 08:27:46;;;;;;;;;;;19.40;99.90;;;;;;4982371;28;19926;-83
2022/11/26 08:30:14;;;;;;;;;;;19.50;99.90;;;;;;4981824;28;19977;-83
2022/11/26 08:32:41;;;;;;;;;;;19.50;99.90;;;;;;4982253;28;19933;-82
2022/11/26 08:35:10;;;;;;;;;;;19.50;99.90;;;;;;4981649;28;19930;-81
2022/11/26 08:37:37;;;;;;;;;;;19.50;99.90;;;;;;4981028;28;19936;-82
2022/11/26 08:40:05;;;;;;;;;;;19.50;99.90;;;;;;4980509;28;20017;-82
2022/11/26 08:42:31;;;;;;;;;;;19.50;99.90;;;;;;4975446;28;19933;-83
2022/11/26 08:44:58;;;;;;;;;;;19.50;99.90;;;;;;4977202;28;19930;-82
2022/11/26 08:47:25;;;;;;;;;;;19.50;99.90;;;;;;4979314;28;19933;-83
2022/11/26 08:49:51;;;;;;;;;;;19.50;99.90;;;;;;4979147;28;20290;-83
2022/11/26 08:52:19;;;;;;;;;;;19.40;99.90;;;;;;4979205;28;19930;-83
2022/11/26 08:54:46;;;;;;;;;;;19.50;99.90;;;;;;4979212;28;19926;-83
2022/11/26 08:57:12;;;;;;;;;;;19.50;99.90;;;;;;4978990;28;19949;-83
2022/11/26 08:59:39;;;;;;;;;;;19.40;99.90;;;;;;4979169;28;19926;-83
2022/11/26 09:02:05;;;;;;;;;;;19.40;99.90;;;;;;4979117;28;19934;-83
2022/11/26 09:04:32;;;;;;;;;;;19.40;99.90;;;;;;4979195;28;19927;-83
2022/11/26 09:06:58;;;;;;;;;;;19.40;99.90;;;;;;4978601;28;20404;-82
2022/11/26 09:09:26;;;;;;;;;;;19.40;99.90;;;;;;4978745;28;19926;-83
2022/11/26 09:11:56;;;;;;;;;;;19.40;99.90;;;;;;4979157;28;19934;-82
2022/11/26 09:14:25;;;;;;;;;;;19.40;99.90;;;;;;4978715;28;19931;-84
2022/11/26 09:16:52;;;;;;;;;;;19.30;99.90;;;;;;4979224;28;19926;-83
2022/11/26 09:19:18;;;;;;;;;;;19.40;99.90;;;;;;4978333;28;20405;-82
2022/11/26 09:21:45;;;;;;;;;;;19.40;99.90;;;;;;4978794;28;19932;-82
2022/11/26 09:24:12;;;;;;;;;;;19.30;99.90;;;;;;4978555;28;19926;-82
2022/11/26 09:26:40;;;;;;;;;;;19.40;99.90;;;;;;4978803;28;19926;-82
2022/11/26 09:29:07;;;;;;;;;;;19.40;99.90;;;;;;4979896;28;19926;-80
2022/11/26 09:31:33;;;;;;;;;;;19.30;99.90;;;;;;4978829;28;19926;-86
2022/11/26 09:34:01;;;;;;;;;;;19.30;99.90;;;;;;4979467;28;19926;-84
2022/11/26 09:36:27;;;;;;;;;;;19.30;99.90;;;;;;4979923;28;19926;-84
2022/11/26 09:38:54;;;;;;;;;;;19.30;99.90;;;;;;4979849;28;19965;-83
2022/11/26 09:41:27;;;;;;;;;;;20.00;99.90;;;;;;4980601;28;19926;-84
2022/11/26 09:44:03;;;;;;;;;;;19.50;99.90;;;;;;4982716;28;19926;-84
2022/11/26 09:46:34;;;;;;;;;;;19.50;99.90;;;;;;4980952;28;19930;-80
2022/11/26 09:49:02;;;;;;;;;;;19.60;99.90;;;;;;4982354;28;20309;-82
2022/11/26 09:51:29;;;;;;;;;;;19.60;99.90;;;;;;4981314;28;20270;-84
2022/11/26 09:53:56;;;;;;;;;;;19.70;99.90;;;;;;4978173;28;19926;-85
2022/11/26 09:56:24;;;;;;;;;;;19.70;99.90;;;;;;4977147;28;20397;-80
2022/11/26 09:58:55;;;;;;;;;;;19.80;99.90;;;;;;4977173;28;19933;-79
2022/11/26 10:01:23;;;;;;;;;;;19.80;99.90;;;;;;4977894;28;19926;-79
2022/11/26 10:03:50;;;;;;;;;;;19.80;99.90;;;;;;4977818;28;19941;-79
2022/11/26 10:06:23;;;;;;;;;;;19.90;99.90;;;;;;4978398;28;19926;-79
2022/11/26 10:09:03;;;;;;;;;;;19.90;99.90;;;;;;4979452;28;20377;-79
2022/11/26 10:11:33;;;;;;;;;;;20.00;99.90;;;;;;4979673;28;19930;-79
2022/11/26 10:14:06;;;;;;;;;;;20.00;99.90;;;;;;4979612;28;20410;-79
2022/11/26 10:16:38;;;;;;;;;;;20.00;99.90;;;;;;4978370;28;19926;-81
2022/11/26 10:19:08;;;;;;;;;;;20.10;99.90;;;;;;4977367;28;19926;-82
2022/11/26 10:21:37;;;;;;;;;;;20.10;99.90;;;;;;4977790;28;19933;-82
2022/11/26 10:24:05;;;;;;;;;;;20.20;99.90;;;;;;4978381;28;19926;-82
2022/11/26 10:26:34;;;;;;;;;;;20.20;99.90;;;;;;4977835;28;19926;-81
2022/11/26 10:29:10;;;;;;;;;;;20.20;99.90;;;;;;4977963;28;19933;-82
2022/11/26 10:31:40;;;;;;;;;;;20.20;99.90;;;;;;4977282;28;19934;-82
2022/11/26 10:34:12;;;;;;;;;;;20.30;99.90;;;;;;4977019;28;19926;-82
2022/11/26 10:36:40;;;;;;;;;;;20.40;99.90;;;;;;4976910;28;20378;-82
2022/11/26 10:39:07;;;;;;;;;;;20.40;99.90;;;;;;4977134;28;19973;-82
2022/11/26 10:41:35;;;;;;;;;;;20.40;99.90;;;;;;4978541;28;19933;-81
2022/11/26 10:44:20;;;;;;;;;;;20.50;99.90;;;;;;4978292;28;19948;-80
2022/11/26 10:46:48;;;;;;;;;;;20.50;99.90;;;;;;4977592;28;20297;-81
2022/11/26 10:49:16;;;;;;;;;;;20.50;99.90;;;;;;4977248;28;20065;-80
2022/11/26 10:51:46;;;;;;;;;;;20.50;99.90;;;;;;4977088;28;19927;-81
2022/11/26 10:54:22;;;;;;;;;;;20.50;99.90;;;;;;4976969;28;19933;-81
2022/11/26 10:56:52;;;;;;;;;;;20.50;99.90;;;;;;4976730;28;20387;-83
2022/11/26 10:59:20;;;;;;;;;;;20.50;99.90;;;;;;4977378;28;20378;-83
2022/11/26 11:01:47;;;;;;;;;;;20.50;99.90;;;;;;4977049;28;19934;-80
2022/11/26 11:04:23;;;;;;;;;;;20.60;99.90;;;;;;4977264;28;19933;-82
2022/11/26 11:06:50;;;;;;;;;;;20.60;99.90;;;;;;4975940;28;19926;-82
2022/11/26 11:09:23;;;;;;;;;;;20.60;99.90;;;;;;4976753;28;19926;-82
2022/11/26 11:12:07;;;;;;;;;;;20.60;99.90;;;;;;4977263;28;20358;-79
2022/11/26 11:14:34;;;;;;;;;;;20.60;99.90;;;;;;4976448;28;19926;-79
2022/11/26 11:17:01;;;;;;;;;;;20.60;99.90;;;;;;4976514;28;19926;-80
2022/11/26 11:19:29;;;;;;;;;;;20.60;99.90;;;;;;4976059;28;20382;-78
2022/11/26 11:21:56;;;;;;;;;;;20.60;99.90;;;;;;4976356;28;19930;-79
2022/11/26 11:24:24;;;;;;;;;;;20.60;99.90;;;;;;4976623;28;19933;-78
2022/11/26 11:26:52;;;;;;;;;;;20.60;99.90;;;;;;4976416;28;19987;-79
2022/11/26 11:29:26;;;;;;;;;;;20.60;99.90;;;;;;4976968;28;19926;-79
2022/11/26 11:31:53;;;;;;;;;;;20.50;99.90;;;;;;4976769;28;19973;-80
2022/11/26 11:34:21;;;;;;;;;;;20.50;99.90;;;;;;4976225;28;20390;-81
2022/11/26 11:36:59;;;;;;;;;;;20.50;99.90;;;;;;4976871;28;19989;-82
2022/11/26 11:39:27;;;;;;;;;;;20.50;99.90;;;;;;4979291;28;20394;-81
2022/11/26 11:41:54;;;;;;;;;;;20.50;99.90;;;;;;4979141;28;19984;-82
2022/11/26 11:44:23;;;;;;;;;;;20.40;99.90;;;;;;4981550;28;19926;-81
2022/11/26 11:47:01;;;;;;;;;;;20.50;99.90;;;;;;4980092;28;19933;-81
2022/11/26 11:49:36;;;;;;;;;;;20.60;99.90;;;;;;4978822;28;19933;-81
2022/11/26 11:52:12;;;;;;;;;;;20.60;99.90;;;;;;4978370;28;19933;-81
2022/11/26 11:54:45;;;;;;;;;;;20.60;99.90;;;;;;4977742;28;19932;-81
2022/11/26 11:57:17;;;;;;;;;;;20.60;99.90;;;;;;4977908;28;19930;-81
2022/11/26 12:00:09;;;;;;;;;;;20.60;99.90;;;;;;4978037;28;19926;-81
2022/11/26 12:02:46;;;;;;;;;;;20.50;99.90;;;;;;4979349;28;19930;-81
2022/11/26 12:05:26;;;;;;;;;;;20.70;99.90;;;;;;4981578;28;19926;-80
2022/11/26 12:07:58;;;;;;;;;;;20.60;99.90;;;;;;4980418;28;19926;-80
2022/11/26 12:10:28;;;;;;;;;;;20.60;99.90;;;;;;4986056;28;19926;-79
2022/11/26 12:12:56;;;;;;;;;;;20.60;99.90;;;;;;4982935;28;19933;-83
2022/11/26 12:15:25;;;;;;;;;;;20.60;99.90;;;;;;4978210;28;20405;-83
2022/11/26 14:17:19;;;;;;;;;;;20.60;99.90;;;;;;5718799;23;19930;-87
2022/11/26 14:19:59;;;;;;;;;;;20.60;99.90;;;;;;4978526;28;20289;-85
2022/11/26 14:22:26;;;;;;;;;;;20.70;99.90;;;;;;4980970;28;20385;-82
2022/11/26 14:24:54;;;;;;;;;;;20.90;99.90;;;;;;4982038;28;19926;-82
2022/11/26 14:27:21;;;;;;;;;;;20.60;99.90;;;;;;5004941;23;19933;-80
2022/11/26 14:29:52;;;;;;;;;;;20.60;99.90;;;;;;4978594;28;19926;-80
2022/11/26 14:32:22;;;;;;;;;;;20.30;99.90;;;;;;4979797;28;20400;-80
2022/11/26 14:34:50;;;;;;;;;;;20.60;99.90;;;;;;4980517;28;19933;-80
2022/11/26 14:37:18;;;;;;;;;;;20.60;99.90;;;;;;4977436;28;20404;-80
2022/11/26 14:39:44;;;;;;;;;;;20.60;99.90;;;;;;4979674;28;19926;-80
2022/11/26 14:42:14;;;;;;;;;;;20.50;99.90;;;;;;4979071;28;19926;-80
2022/11/26 14:44:41;;;;;;;;;;;20.50;99.90;;;;;;4979798;28;20393;-80
2022/11/26 14:47:09;;;;;;;;;;;20.50;99.90;;;;;;4980039;28;19994;-80
2022/11/26 14:49:39;;;;;;;;;;;20.50;99.90;;;;;;4980166;28;19926;-80
2022/11/26 14:52:13;;;;;;;;;;;20.40;99.90;;;;;;4978465;28;20321;-80
2022/11/26 14:54:40;;;;;;;;;;;20.40;99.90;;;;;;4978840;28;19932;-80
2022/11/26 14:57:10;;;;;;;;;;;20.40;99.90;;;;;;4978101;28;20274;-80
2022/11/26 14:59:36;;;;;;;;;;;21.20;99.90;;;;;;4977435;28;19926;-80
2022/11/26 15:02:03;;;;;;;;;;;20.40;99.90;;;;;;4978102;28;19930;-80
2022/11/26 15:04:33;;;;;;;;;;;20.40;99.90;;;;;;4978522;28;20025;-80
2022/11/26 15:07:01;;;;;;;;;;;20.10;99.90;;;;;;4977649;28;20297;-80
2022/11/26 15:09:28;;;;;;;;;;;20.30;99.90;;;;;;4980169;28;19926;-79
2022/11/26 15:11:59;;;;;;;;;;;20.30;99.90;;;;;;4978056;28;19941;-79
2022/11/26 15:14:28;;;;;;;;;;;20.30;99.90;;;;;;4978315;28;20417;-80
2022/11/26 15:16:56;;;;;;;;;;;20.20;99.90;;;;;;4980402;28;20028;-80
2022/11/26 15:19:23;;;;;;;;;;;20.20;99.90;;;;;;4978666;28;19926;-79
2022/11/26 15:21:50;;;;;;;;;;;20.10;99.90;;;;;;4977692;28;19926;-79
2022/11/26 15:24:18;;;;;;;;;;;20.30;99.90;;;;;;4977152;28;20386;-79
2022/11/26 15:26:46;;;;;;;;;;;20.10;99.90;;;;;;4976835;28;20377;-78
2022/11/26 15:29:29;;;;;;;;;;;20.20;99.90;;;;;;4976501;28;19930;-79
2022/11/26 15:31:56;;;;;;;;;;;20.20;99.90;;;;;;4977109;28;20378;-79
2022/11/26 15:34:23;;;;;;;;;;;20.20;99.90;;;;;;4976742;28;19926;-79
2022/11/26 15:36:49;;;;;;;;;;;20.10;99.90;;;;;;4976690;28;19933;-79
2022/11/26 15:39:24;;;;;;;;;;;20.20;99.90;;;;;;4976362;28;19926;-79
2022/11/26 15:41:51;;;;;;;;;;;20.10;99.90;;;;;;4976087;28;20390;-79
2022/11/26 15:44:19;;;;;;;;;;;20.10;99.90;;;;;;4977433;28;19932;-80
2022/11/26 15:46:48;;;;;;;;;;;20.10;99.90;;;;;;4977638;28;19932;-79
2022/11/26 15:49:18;;;;;;;;;;;20.10;99.90;;;;;;4977301;28;19926;-80
2022/11/26 15:51:50;;;;;;;;;;;20.10;99.90;;;;;;4979845;28;19926;-81
2022/11/26 15:54:20;;;;;;;;;;;19.90;99.90;;;;;;4980202;28;19926;-81
2022/11/26 15:56:51;;;;;;;;;;;20.10;99.90;;;;;;4982074;28;19926;-81
2022/11/26 15:59:18;;;;;;;;;;;20.00;99.90;;;;;;4983443;28;19946;-82
2022/11/26 16:01:45;;;;;;;;;;;20.00;99.90;;;;;;4980407;28;19926;-81
2022/11/26 16:04:27;;;;;;;;;;;19.90;99.90;;;;;;4976590;28;20411;-83
2022/11/26 16:07:07;;;;;;;;;;;20.00;99.90;;;;;;4975722;28;19926;-83
2022/11/26 16:09:34;;;;;;;;;;;20.00;99.90;;;;;;4975724;28;19969;-84
2022/11/26 16:12:02;;;;;;;;;;;20.10;99.90;;;;;;4975299;28;20029;-84
2022/11/26 16:14:29;;;;;;;;;;;21.10;99.90;;;;;;4976027;28;19977;-83
2022/11/26 16:16:59;;;;;;;;;;;20.40;99.90;;;;;;4976934;28;19972;-83
2022/11/26 16:19:30;;;;;;;;;;;20.10;99.90;;;;;;4975407;28;19953;-84
2022/11/26 16:21:57;;;;;;;;;;;20.30;99.90;;;;;;4975591;28;19926;-84
2022/11/26 16:24:27;;;;;;;;;;;20.50;99.90;;;;;;4977274;28;20285;-84
2022/11/26 16:26:56;;;;;;;;;;;20.00;99.90;;;;;;4976393;28;19926;-84
2022/11/26 16:29:26;;;;;;;;;;;20.10;99.90;;;;;;4976007;28;20012;-84
2022/11/26 16:31:53;;;;;;;;;;;20.10;99.90;;;;;;4976866;28;20042;-83
2022/11/26 16:34:28;;;;;;;;;;;19.50;99.90;;;;;;4976203;28;20406;-83
2022/11/26 16:37:00;;;;;;;;;;;20.10;99.90;;;;;;4975957;28;19926;-84
2022/11/26 16:42:33;;;;;;;;;;;20.20;99.90;;;;;;4969968;28;19933;-83
2022/11/26 16:45:13;;;;;;;;;;;20.20;99.90;;;;;;4976235;28;20296;-85
2022/11/26 16:47:41;;;;;;;;;;;20.40;99.90;;;;;;4974907;28;20408;-85
2022/11/26 16:50:17;;;;;;;;;;;20.60;99.90;;;;;;4976343;28;20010;-83
2022/11/26 16:52:45;;;;;;;;;;;20.10;99.90;;;;;;4976112;28;20445;-84
2022/11/26 16:55:13;;;;;;;;;;;20.30;99.90;;;;;;4975253;28;19937;-84
2022/11/26 16:57:40;;;;;;;;;;;20.10;99.90;;;;;;4975712;28;19933;-83
2022/11/26 17:00:14;;;;;;;;;;;20.10;99.90;;;;;;4975284;28;20352;-84
2022/11/26 17:02:42;;;;;;;;;;;20.10;99.90;;;;;;4975211;28;19926;-84
2022/11/26 17:05:10;;;;;;;;;;;20.50;99.90;;;;;;4974761;28;19926;-84
2022/11/26 17:07:49;;;;;;;;;;;;;;;;;;;;;
2022/11/26 17:10:29;;;;;;;;;;;19.50;99.90;;;;;;4977102;28;19926;-84
2022/11/26 17:12:56;;;;;;;;;;;20.50;99.90;;;;;;4978773;28;19980;-84
2022/11/26 17:15:24;;;;;;;;;;;20.20;99.90;;;;;;4979115;28;19981;-84
2022/11/26 17:18:21;;;;;;;;;;;;;;;;;;;;;
2022/11/26 17:20:49;;;;;;;;;;;19.60;99.90;;;;;;4975878;28;19932;-81
2022/11/26 17:23:15;;;;;;;;;;;19.20;99.90;;;;;;4981668;28;19926;-82
2022/11/26 17:25:43;;;;;;;;;;;20.10;99.90;;;;;;4979672;28;19937;-83
2022/11/26 17:28:10;;;;;;;;;;;20.30;99.90;;;;;;4979124;28;19953;-83
2022/11/26 17:30:39;;;;;;;;;;;20.00;99.90;;;;;;4979063;28;19926;-83
2022/11/26 17:33:05;;;;;;;;;;;20.10;99.90;;;;;;4979183;28;19977;-83
2022/11/26 17:35:32;;;;;;;;;;;20.40;99.90;;;;;;4978912;28;19930;-81
2022/11/26 17:37:58;;;;;;;;;;;20.10;99.90;;;;;;4978193;28;19933;-81
2022/11/26 17:40:25;;;;;;;;;;;20.10;99.90;;;;;;4978662;28;20409;-81
2022/11/26 17:42:53;;;;;;;;;;;20.10;99.90;;;;;;4978893;28;19934;-81
2022/11/26 17:45:20;;;;;;;;;;;20.10;99.90;;;;;;4979114;28;19926;-81
2022/11/26 17:47:48;;;;;;;;;;;20.10;99.90;;;;;;4978822;28;19927;-81
2022/11/26 17:50:17;;;;;;;;;;;20.10;99.90;;;;;;4979116;28;19926;-81
2022/11/26 17:52:43;;;;;;;;;;;20.10;99.90;;;;;;4978777;28;19926;-81
2022/11/26 17:55:11;;;;;;;;;;;20.10;99.90;;;;;;4978635;28;19937;-81
2022/11/26 17:57:38;;;;;;;;;;;20.10;99.90;;;;;;4978291;28;19933;-81
2022/11/26 18:00:05;;;;;;;;;;;20.10;99.90;;;;;;4978551;28;20298;-81
2022/11/26 18:02:32;;;;;;;;;;;20.10;99.90;;;;;;4978360;28;19937;-80
2022/11/26 18:05:00;;;;;;;;;;;20.10;99.90;;;;;;4978398;28;20386;-80
2022/11/26 18:07:27;;;;;;;;;;;20.10;99.90;;;;;;4978438;28;19933;-81
2022/11/26 18:09:55;;;;;;;;;;;20.30;99.90;;;;;;4978324;28;19926;-80
2022/11/26 18:12:23;;;;;;;;;;;20.10;99.90;;;;;;4978429;28;19934;-80
2022/11/26 18:14:50;;;;;;;;;;;20.00;99.90;;;;;;4978190;28;19926;-81
2022/11/26 18:17:16;;;;;;;;;;;20.10;99.90;;;;;;4978098;28;19926;-81
2022/11/26 18:19:43;;;;;;;;;;;20.10;99.90;;;;;;4977311;28;19926;-78
2022/11/26 18:22:12;;;;;;;;;;;20.10;99.90;;;;;;4978314;28;20412;-80
2022/11/26 18:24:38;;;;;;;;;;;20.10;99.90;;;;;;4978450;28;19933;-83
2022/11/26 18:27:05;;;;;;;;;;;20.10;99.90;;;;;;4977679;28;20294;-82
2022/11/26 18:29:32;;;;;;;;;;;20.10;99.90;;;;;;4978152;28;19936;-80
2022/11/26 18:31:58;;;;;;;;;;;20.20;99.90;;;;;;4978551;28;19926;-80
2022/11/26 18:34:25;;;;;;;;;;;20.20;99.90;;;;;;4978097;28;20294;-82
2022/11/26 18:36:51;;;;;;;;;;;20.20;99.90;;;;;;4978488;28;19937;-80
2022/11/26 18:39:19;;;;;;;;;;;20.30;99.90;;;;;;4978516;28;19926;-80
2022/11/26 18:41:46;;;;;;;;;;;20.30;99.90;;;;;;4978863;28;19926;-81
2022/11/26 18:44:12;;;;;;;;;;;20.40;99.90;;;;;;4978647;28;19930;-82
2022/11/26 18:46:39;;;;;;;;;;;20.40;99.90;;;;;;4978679;28;19927;-82
2022/11/26 18:49:05;;;;;;;;;;;20.50;99.90;;;;;;4978450;28;19926;-82
2022/11/26 18:51:32;;;;;;;;;;;20.50;99.90;;;;;;4978876;28;19930;-81
2022/11/26 18:53:59;;;;;;;;;;;20.60;99.90;;;;;;4977545;28;19926;-83
2022/11/26 18:56:26;;;;;;;;;;;20.40;99.90;;;;;;4978236;28;20298;-81
2022/11/26 18:58:53;;;;;;;;;;;20.50;99.90;;;;;;4977853;28;19926;-81
2022/11/26 19:01:21;;;;;;;;;;;20.60;99.90;;;;;;4977438;28;19977;-82
2022/11/26 19:03:48;;;;;;;;;;;20.60;99.90;;;;;;4977177;28;19930;-83
2022/11/26 19:06:16;;;;;;;;;;;20.60;99.90;;;;;;4977944;28;19926;-81
2022/11/26 19:08:42;;;;;;;;;;;20.60;99.90;;;;;;4977533;28;20389;-81
2022/11/26 19:11:10;;;;;;;;;;;20.60;99.90;;;;;;4977944;28;20279;-82
2022/11/26 19:13:38;;;;;;;;;;;20.80;99.90;;;;;;4977472;28;19926;-85
2022/11/26 19:16:08;;;;;;;;;;;20.60;99.90;;;;;;4976600;28;19926;-83
2022/11/26 19:18:35;;;;;;;;;;;20.70;99.90;;;;;;4976852;28;20278;-83
2022/11/26 19:21:02;;;;;;;;;;;20.70;99.90;;;;;;4976518;28;19926;-82
2022/11/26 19:23:30;;;;;;;;;;;20.70;99.90;;;;;;4977058;28;20021;-86
2022/11/26 19:25:56;;;;;;;;;;;20.70;99.90;;;;;;4976678;28;19927;-83
2022/11/26 19:28:24;;;;;;;;;;;20.70;99.90;;;;;;4975864;28;19926;-82
2022/11/26 19:30:58;;;;;;;;;;;20.70;99.90;;;;;;4977093;28;19926;-82
2022/11/26 19:33:25;;;;;;;;;;;20.70;99.90;;;;;;4976703;28;19926;-83
2022/11/26 19:35:51;;;;;;;;;;;20.70;99.90;;;;;;4976479;28;19942;-82
2022/11/26 19:38:18;;;;;;;;;;;20.70;99.90;;;;;;4977138;28;19926;-83
2022/11/26 19:40:44;;;;;;;;;;;20.70;99.90;;;;;;4976754;28;19926;-84
2022/11/26 19:43:11;;;;;;;;;;;20.70;99.90;;;;;;4975941;28;19933;-83
2022/11/26 19:45:38;;;;;;;;;;;20.70;99.90;;;;;;4977045;28;19934;-81
2022/11/26 19:48:06;;;;;;;;;;;20.70;99.90;;;;;;4976340;28;19926;-84
2022/11/26 19:50:32;;;;;;;;;;;20.70;99.90;;;;;;4976525;28;20306;-82
2022/11/26 19:53:01;;;;;;;;;;;20.80;99.90;;;;;;4976301;28;21551;-82
2022/11/26 19:55:27;;;;;;;;;;;20.80;99.90;;;;;;4976339;28;20449;-81
2022/11/26 19:57:54;;;;;;;;;;;20.80;99.90;;;;;;4976067;28;19926;-82
2022/11/26 20:00:21;;;;;;;;;;;20.80;99.90;;;;;;4976234;28;19926;-81
2022/11/26 20:02:47;;;;;;;;;;;20.80;99.90;;;;;;4975883;28;19933;-85
2022/11/26 20:05:15;;;;;;;;;;;20.80;99.90;;;;;;4976206;28;20295;-82
2022/11/26 20:07:43;;;;;;;;;;;20.80;99.90;;;;;;4976326;28;19926;-83
2022/11/26 20:10:10;;;;;;;;;;;20.80;99.90;;;;;;4976164;28;20000;-82
2022/11/26 20:12:37;;;;;;;;;;;20.80;99.90;;;;;;4976164;28;20271;-82
2022/11/26 20:15:04;;;;;;;;;;;20.40;99.90;;;;;;4976307;28;19926;-82
2022/11/26 20:17:30;;;;;;;;;;;20.80;99.90;;;;;;4975665;28;19965;-83
2022/11/26 20:19:57;;;;;;;;;;;20.90;99.90;;;;;;4975809;28;19933;-83
2022/11/26 20:22:25;;;;;;;;;;;20.90;99.90;;;;;;4977502;28;19926;-82
2022/11/26 20:24:51;;;;;;;;;;;20.90;99.90;;;;;;4977928;28;19941;-82
2022/11/26 20:27:18;;;;;;;;;;;20.90;99.90;;;;;;4976735;28;19933;-83
2022/11/26 20:29:45;;;;;;;;;;;20.90;99.90;;;;;;4977882;28;20385;-83
2022/11/26 20:32:12;;;;;;;;;;;20.90;99.90;;;;;;4977084;28;19933;-83
2022/11/26 20:34:39;;;;;;;;;;;20.90;99.90;;;;;;4976835;28;19926;-82
2022/11/26 20:37:05;;;;;;;;;;;20.90;99.90;;;;;;4977894;28;19933;-82
2022/11/26 20:39:33;;;;;;;;;;;20.80;99.90;;;;;;4980642;28;20390;-83
2022/11/26 20:42:00;;;;;;;;;;;20.90;99.90;;;;;;4984219;28;19932;-81
2022/11/26 20:44:27;;;;;;;;;;;20.90;99.90;;;;;;4984093;28;19929;-81
2022/11/26 20:46:54;;;;;;;;;;;21.00;99.90;;;;;;4984913;28;19930;-82
2022/11/26 20:49:22;;;;;;;;;;;21.00;99.90;;;;;;4984096;28;19926;-82
2022/11/26 20:51:48;;;;;;;;;;;21.00;99.90;;;;;;4986356;28;19925;-81
2022/11/26 20:54:15;;;;;;;;;;;21.00;99.90;;;;;;4985117;28;19934;-81
2022/11/26 20:56:43;;;;;;;;;;;21.00;99.90;;;;;;4984139;28;19934;-81
2022/11/26 20:59:09;;;;;;;;;;;21.00;99.90;;;;;;4984174;28;19926;-80
2022/11/26 21:01:36;;;;;;;;;;;21.00;99.90;;;;;;4983848;28;20021;-82
2022/11/26 21:04:03;;;;;;;;;;;21.00;99.90;;;;;;4983341;28;19926;-83
2022/11/26 21:06:30;;;;;;;;;;;21.00;99.90;;;;;;4983756;28;19933;-81
2022/11/26 21:08:57;;;;;;;;;;;21.00;99.90;;;;;;4983255;28;19926;-81
2022/11/26 21:11:23;;;;;;;;;;;21.00;99.90;;;;;;4983024;28;19930;-80
2022/11/26 21:13:51;;;;;;;;;;;20.80;99.90;;;;;;4985092;28;19926;-80
2022/11/26 21:16:18;;;;;;;;;;;21.00;99.90;;;;;;4985087;28;19926;-80
2022/11/26 21:18:44;;;;;;;;;;;20.90;99.90;;;;;;4984721;28;20397;-80
2022/11/26 21:21:13;;;;;;;;;;;20.90;99.90;;;;;;4984666;28;19941;-81
2022/11/26 21:23:40;;;;;;;;;;;20.90;99.90;;;;;;4984582;28;19926;-80
2022/11/26 21:26:07;;;;;;;;;;;20.80;99.90;;;;;;4983469;28;19926;-80
2022/11/26 21:28:34;;;;;;;;;;;20.80;99.90;;;;;;4985499;28;19930;-81
2022/11/26 21:31:05;;;;;;;;;;;20.70;99.90;;;;;;4990486;28;19926;-82
2022/11/26 21:33:32;;;;;;;;;;;20.70;99.90;;;;;;4986465;28;20025;-81
2022/11/26 21:36:03;;;;;;;;;;;20.70;99.90;;;;;;4985067;28;19926;-81
2022/11/26 21:38:29;;;;;;;;;;;20.70;99.90;;;;;;4985843;28;19926;-81
2022/11/26 21:40:56;;;;;;;;;;;20.60;99.90;;;;;;4982565;28;19926;-81